RYR85HF LEPA-LOWK
Flight info
| Callsign | RYR85HF |
|---|---|
| Flight time | 1h 49m |
| Altitude | 34000 |
| Route | ISTER DCT NIVDA DCT OMEDA DCT RAPUR DCT TORTU DCT MIVKI DCT LUPOS DCT NEVMO DCT LAREN DCT OSLOP DCT TIBRO P125 ARNOS ARNOS4A |
| Aircraft | A320/M-SDE3FGHIRWY/LB1 |
Departure
| Time | 2026-05-04 16:50 |
|---|---|
| Airport | Palma de Mallorca Airport (LEPA) |
Arrival
| Time | 2026-05-04 18:39 |
|---|---|
| Airport | Klagenfurt Airport (LOWK) |
| Time | Latitude | Longitude | Altitude | Speed | Heading |
|---|---|---|---|---|---|
| 2026-05-04 16:15 | 39.54987 | 2.73387 | 34 ft | 0 kts | 163° |
| 2026-05-04 16:33 | 39.55008 | 2.73375 | 35 ft | 2 kts | 145° |
| 2026-05-04 16:34 | 39.55029 | 2.73347 | 35 ft | 2 kts | 121° |
| 2026-05-04 16:34 | 39.55035 | 2.73329 | 35 ft | 2 kts | 110° |
| 2026-05-04 16:35 | 39.55038 | 2.73272 | 35 ft | 2 kts | 75° |
| 2026-05-04 16:35 | 39.55033 | 2.73256 | 35 ft | 0 kts | 71° |
| 2026-05-04 16:37 | 39.55035 | 2.73261 | 34 ft | 3 kts | 71° |
| 2026-05-04 16:38 | 39.55092 | 2.73413 | 34 ft | 11 kts | 58° |
| 2026-05-04 16:39 | 39.55168 | 2.73655 | 35 ft | 3 kts | 98° |
| 2026-05-04 16:39 | 39.55173 | 2.73680 | 35 ft | 2 kts | 66° |
| 2026-05-04 16:40 | 39.55166 | 2.73749 | 35 ft | 0 kts | 122° |
| 2026-05-04 16:40 | 39.55199 | 2.73823 | 35 ft | 10 kts | 1° |
| 2026-05-04 16:41 | 39.55362 | 2.73699 | 35 ft | 14 kts | 329° |
| 2026-05-04 16:41 | 39.55627 | 2.73491 | 34 ft | 8 kts | 338° |
| 2026-05-04 16:42 | 39.55726 | 2.73658 | 34 ft | 10 kts | 59° |
| 2026-05-04 16:43 | 39.55835 | 2.73888 | 34 ft | 18 kts | 58° |
| 2026-05-04 16:43 | 39.55973 | 2.74177 | 35 ft | 18 kts | 58° |
| 2026-05-04 16:43 | 39.56064 | 2.74276 | 35 ft | 17 kts | 34° |
| 2026-05-04 16:44 | 39.56223 | 2.74259 | 34 ft | 0 kts | 239° |
| 2026-05-04 16:49 | 39.56214 | 2.74239 | 34 ft | 10 kts | 238° |
| 2026-05-04 16:50 | 39.55603 | 2.72947 | 35 ft | 152 kts | 238° |
| 2026-05-04 16:50 | 39.54431 | 2.70431 | 1361 ft | 166 kts | 238° |
| 2026-05-04 16:51 | 39.53233 | 2.67926 | 2634 ft | 170 kts | 237° |
| 2026-05-04 16:51 | 39.52586 | 2.66606 | 3173 ft | 176 kts | 238° |
| 2026-05-04 16:51 | 39.51323 | 2.63987 | 4190 ft | 188 kts | 239° |
| 2026-05-04 16:52 | 39.49844 | 2.61070 | 5259 ft | 203 kts | 230° |
| 2026-05-04 16:52 | 39.48724 | 2.59868 | 5733 ft | 217 kts | 214° |
| 2026-05-04 16:53 | 39.45959 | 2.57863 | 6792 ft | 241 kts | 210° |
| 2026-05-04 16:53 | 39.40913 | 2.55912 | 8364 ft | 283 kts | 167° |
| 2026-05-04 16:54 | 39.39164 | 2.57157 | 8893 ft | 297 kts | 136° |
| 2026-05-04 16:55 | 39.38509 | 2.68030 | 10944 ft | 334 kts | 82° |
| 2026-05-04 16:55 | 39.39047 | 2.74142 | 11851 ft | 352 kts | 83° |
| 2026-05-04 16:56 | 39.39551 | 2.80621 | 12428 ft | 377 kts | 83° |
| 2026-05-04 16:56 | 39.40328 | 2.91216 | 13278 ft | 409 kts | 84° |
| 2026-05-04 16:57 | 39.40593 | 2.94912 | 13734 ft | 413 kts | 84° |
| 2026-05-04 16:57 | 39.41121 | 3.02324 | 14633 ft | 421 kts | 84° |
| 2026-05-04 16:58 | 39.41920 | 3.13708 | 15989 ft | 429 kts | 83° |
| 2026-05-04 16:58 | 39.42190 | 3.17578 | 16445 ft | 431 kts | 83° |
| 2026-05-04 16:59 | 39.43165 | 3.25239 | 17347 ft | 433 kts | 71° |
| 2026-05-04 17:00 | 39.48777 | 3.38908 | 19155 ft | 434 kts | 56° |
| 2026-05-04 17:00 | 39.53445 | 3.48970 | 20511 ft | 436 kts | 57° |
| 2026-05-04 17:01 | 39.56542 | 3.55717 | 21416 ft | 437 kts | 57° |
| 2026-05-04 17:01 | 39.59639 | 3.62495 | 22315 ft | 436 kts | 57° |
| 2026-05-04 17:02 | 39.62703 | 3.69214 | 23163 ft | 436 kts | 57° |
| 2026-05-04 17:02 | 39.65789 | 3.76002 | 24020 ft | 435 kts | 57° |
| 2026-05-04 17:03 | 39.67310 | 3.79350 | 24444 ft | 435 kts | 57° |
| 2026-05-04 17:03 | 39.68850 | 3.82745 | 24874 ft | 434 kts | 57° |
| 2026-05-04 17:03 | 39.71870 | 3.89416 | 25719 ft | 432 kts | 57° |
| 2026-05-04 17:04 | 39.74889 | 3.96099 | 26571 ft | 429 kts | 57° |
| 2026-05-04 17:04 | 39.77892 | 4.02761 | 27424 ft | 426 kts | 57° |
| 2026-05-04 17:05 | 39.80867 | 4.09373 | 28277 ft | 422 kts | 57° |
| 2026-05-04 17:05 | 39.83804 | 4.15919 | 29127 ft | 417 kts | 56° |
| 2026-05-04 17:06 | 39.86695 | 4.22370 | 29959 ft | 413 kts | 56° |
| 2026-05-04 17:06 | 39.88145 | 4.25598 | 30213 ft | 414 kts | 56° |
| 2026-05-04 17:07 | 39.91047 | 4.32062 | 30713 ft | 417 kts | 56° |
| 2026-05-04 17:07 | 39.92027 | 4.34248 | 30882 ft | 418 kts | 56° |
| 2026-05-04 17:07 | 39.93976 | 4.38602 | 31216 ft | 420 kts | 56° |
| 2026-05-04 17:07 | 39.95434 | 4.41868 | 31466 ft | 421 kts | 56° |
| 2026-05-04 17:08 | 39.96917 | 4.45188 | 31718 ft | 422 kts | 56° |
| 2026-05-04 17:08 | 39.99853 | 4.51777 | 32219 ft | 423 kts | 56° |
| 2026-05-04 17:08 | 40.01333 | 4.55104 | 32471 ft | 424 kts | 56° |
| 2026-05-04 17:09 | 40.02800 | 4.58408 | 32720 ft | 424 kts | 56° |
| 2026-05-04 17:09 | 40.04267 | 4.61714 | 32969 ft | 424 kts | 56° |
| 2026-05-04 17:09 | 40.05806 | 4.64987 | 33219 ft | 423 kts | 53° |
| 2026-05-04 17:10 | 40.09283 | 4.71136 | 33723 ft | 419 kts | 47° |
| 2026-05-04 17:10 | 40.14915 | 4.79953 | 33979 ft | 431 kts | 46° |
| 2026-05-04 17:11 | 40.18771 | 4.86003 | 33983 ft | 442 kts | 46° |
| 2026-05-04 17:11 | 40.22739 | 4.92257 | 33984 ft | 453 kts | 46° |
| 2026-05-04 17:12 | 40.24773 | 4.95467 | 33984 ft | 457 kts | 46° |
| 2026-05-04 17:13 | 40.34855 | 5.11434 | 33980 ft | 455 kts | 45° |
| 2026-05-04 17:14 | 40.42903 | 5.24231 | 33980 ft | 455 kts | 45° |
| 2026-05-04 17:15 | 40.48915 | 5.33828 | 33980 ft | 456 kts | 45° |
| 2026-05-04 17:16 | 40.56943 | 5.46693 | 33980 ft | 456 kts | 45° |
| 2026-05-04 17:17 | 40.64942 | 5.59565 | 33980 ft | 456 kts | 45° |
| 2026-05-04 17:18 | 40.72906 | 5.72433 | 33980 ft | 456 kts | 46° |
| 2026-05-04 17:19 | 40.80895 | 5.85397 | 33980 ft | 456 kts | 45° |
| 2026-05-04 17:20 | 40.88859 | 5.98376 | 33980 ft | 456 kts | 46° |
| 2026-05-04 17:20 | 40.94823 | 6.08131 | 33984 ft | 456 kts | 46° |
| 2026-05-04 17:21 | 41.02762 | 6.21174 | 34009 ft | 457 kts | 45° |
| 2026-05-04 17:22 | 41.06752 | 6.27747 | 34022 ft | 459 kts | 44° |
| 2026-05-04 17:23 | 41.14751 | 6.40958 | 34033 ft | 461 kts | 44° |
| 2026-05-04 17:24 | 41.20755 | 6.50911 | 34033 ft | 462 kts | 44° |
| 2026-05-04 17:25 | 41.28804 | 6.64089 | 34033 ft | 460 kts | 43° |
| 2026-05-04 17:26 | 41.36975 | 6.77220 | 34033 ft | 461 kts | 44° |
| 2026-05-04 17:27 | 41.47121 | 6.93642 | 34033 ft | 461 kts | 44° |
| 2026-05-04 17:28 | 41.55244 | 7.06861 | 34033 ft | 460 kts | 44° |
| 2026-05-04 17:29 | 41.67303 | 7.26588 | 34033 ft | 457 kts | 43° |
| 2026-05-04 17:31 | 41.77276 | 7.43000 | 34026 ft | 456 kts | 43° |
| 2026-05-04 17:32 | 41.87247 | 7.59498 | 34016 ft | 456 kts | 43° |
| 2026-05-04 17:33 | 41.95227 | 7.72769 | 34015 ft | 457 kts | 44° |
| 2026-05-04 17:34 | 42.03168 | 7.86032 | 34015 ft | 457 kts | 44° |
| 2026-05-04 17:35 | 42.13102 | 8.02708 | 34016 ft | 457 kts | 44° |
| 2026-05-04 17:36 | 42.17046 | 8.09352 | 34018 ft | 457 kts | 44° |
| 2026-05-04 17:36 | 42.21000 | 8.16030 | 34022 ft | 457 kts | 44° |
| 2026-05-04 17:37 | 42.24958 | 8.22729 | 34027 ft | 457 kts | 44° |
| 2026-05-04 17:37 | 42.29030 | 8.29267 | 34030 ft | 452 kts | 39° |
| 2026-05-04 17:38 | 42.33647 | 8.34818 | 34032 ft | 443 kts | 30° |
| 2026-05-04 17:38 | 42.38780 | 8.39234 | 34033 ft | 435 kts | 21° |
| 2026-05-04 17:39 | 42.46983 | 8.44078 | 34033 ft | 430 kts | 15° |
| 2026-05-04 17:39 | 42.52535 | 8.47138 | 34033 ft | 430 kts | 15° |
| 2026-05-04 17:40 | 42.58022 | 8.50181 | 34033 ft | 430 kts | 15° |
| 2026-05-04 17:40 | 42.63534 | 8.53249 | 34033 ft | 430 kts | 15° |
| 2026-05-04 17:41 | 42.69046 | 8.56326 | 34033 ft | 430 kts | 15° |
| 2026-05-04 17:41 | 42.74560 | 8.59409 | 34033 ft | 430 kts | 15° |
| 2026-05-04 17:42 | 42.80091 | 8.62508 | 34032 ft | 430 kts | 15° |
| 2026-05-04 17:42 | 42.85630 | 8.65619 | 34030 ft | 430 kts | 16° |
| 2026-05-04 17:43 | 42.91141 | 8.68720 | 34030 ft | 432 kts | 16° |
| 2026-05-04 17:43 | 42.96693 | 8.71852 | 34030 ft | 438 kts | 16° |
| 2026-05-04 17:44 | 43.02334 | 8.75040 | 34030 ft | 444 kts | 17° |
| 2026-05-04 17:44 | 43.08047 | 8.78277 | 34032 ft | 448 kts | 17° |
| 2026-05-04 17:45 | 43.13838 | 8.81569 | 34034 ft | 449 kts | 17° |
| 2026-05-04 17:45 | 43.19596 | 8.84846 | 34033 ft | 449 kts | 17° |
| 2026-05-04 17:46 | 43.25329 | 8.88115 | 34033 ft | 448 kts | 17° |
| 2026-05-04 17:46 | 43.31073 | 8.91438 | 34034 ft | 450 kts | 19° |
| 2026-05-04 17:47 | 43.36592 | 8.95406 | 34037 ft | 453 kts | 25° |
| 2026-05-04 17:47 | 43.41822 | 9.00302 | 34047 ft | 457 kts | 32° |
| 2026-05-04 17:48 | 43.46618 | 9.06001 | 34065 ft | 459 kts | 37° |
| 2026-05-04 17:48 | 43.51228 | 9.12045 | 34086 ft | 456 kts | 37° |
| 2026-05-04 17:49 | 43.55783 | 9.18049 | 34103 ft | 455 kts | 37° |
| 2026-05-04 17:49 | 43.60360 | 9.24078 | 34111 ft | 454 kts | 37° |
| 2026-05-04 17:50 | 43.64916 | 9.30088 | 34115 ft | 455 kts | 37° |
| 2026-05-04 17:50 | 43.69480 | 9.36120 | 34115 ft | 455 kts | 37° |
| 2026-05-04 17:51 | 43.74025 | 9.42141 | 34115 ft | 455 kts | 37° |
| 2026-05-04 17:51 | 43.78574 | 9.48178 | 34116 ft | 455 kts | 37° |
| 2026-05-04 17:52 | 43.83131 | 9.54241 | 34114 ft | 455 kts | 37° |
| 2026-05-04 17:52 | 43.87673 | 9.60296 | 34115 ft | 455 kts | 37° |
| 2026-05-04 17:53 | 43.92245 | 9.66405 | 34113 ft | 455 kts | 38° |
| 2026-05-04 17:53 | 43.96789 | 9.72488 | 34115 ft | 455 kts | 38° |
| 2026-05-04 17:54 | 44.01295 | 9.78537 | 34116 ft | 455 kts | 38° |
| 2026-05-04 17:54 | 44.05822 | 9.84626 | 34116 ft | 455 kts | 38° |
| 2026-05-04 17:55 | 44.10342 | 9.90719 | 34117 ft | 455 kts | 38° |
| 2026-05-04 17:55 | 44.14813 | 9.96759 | 34116 ft | 455 kts | 38° |
| 2026-05-04 17:56 | 44.19336 | 10.02885 | 34116 ft | 455 kts | 38° |
| 2026-05-04 17:56 | 44.23687 | 10.09434 | 34116 ft | 461 kts | 44° |
| 2026-05-04 17:57 | 44.27602 | 10.16403 | 34116 ft | 462 kts | 46° |
| 2026-05-04 17:57 | 44.31520 | 10.23535 | 34116 ft | 462 kts | 46° |
| 2026-05-04 17:58 | 44.35408 | 10.30615 | 34115 ft | 462 kts | 46° |
| 2026-05-04 17:58 | 44.39311 | 10.37725 | 34107 ft | 462 kts | 46° |
| 2026-05-04 17:59 | 44.43204 | 10.44833 | 34093 ft | 462 kts | 46° |
| 2026-05-04 18:00 | 44.49057 | 10.55553 | 34073 ft | 463 kts | 46° |
| 2026-05-04 18:00 | 44.52799 | 10.62843 | 34066 ft | 465 kts | 49° |
| 2026-05-04 18:01 | 44.56482 | 10.70363 | 34063 ft | 466 kts | 50° |
| 2026-05-04 18:01 | 44.60125 | 10.77821 | 34063 ft | 466 kts | 50° |
| 2026-05-04 18:02 | 44.65594 | 10.89051 | 34064 ft | 463 kts | 49° |
| 2026-05-04 18:02 | 44.69188 | 10.96448 | 34065 ft | 459 kts | 48° |
| 2026-05-04 18:03 | 44.72774 | 11.03841 | 34065 ft | 455 kts | 47° |
| 2026-05-04 18:03 | 44.76306 | 11.11124 | 34063 ft | 452 kts | 47° |
| 2026-05-04 18:04 | 44.79848 | 11.18444 | 34063 ft | 452 kts | 47° |
| 2026-05-04 18:05 | 44.85109 | 11.29365 | 34061 ft | 452 kts | 47° |
| 2026-05-04 18:05 | 44.88643 | 11.36723 | 34060 ft | 451 kts | 46° |
| 2026-05-04 18:06 | 44.94339 | 11.47090 | 34061 ft | 446 kts | 42° |
| 2026-05-04 18:06 | 44.98249 | 11.53917 | 34060 ft | 446 kts | 42° |
| 2026-05-04 18:07 | 45.02122 | 11.60705 | 34060 ft | 447 kts | 42° |
| 2026-05-04 18:07 | 45.06056 | 11.67620 | 34062 ft | 449 kts | 43° |
| 2026-05-04 18:08 | 45.10105 | 11.74756 | 34070 ft | 452 kts | 42° |
| 2026-05-04 18:08 | 45.14041 | 11.81712 | 34078 ft | 453 kts | 42° |
| 2026-05-04 18:09 | 45.21891 | 11.95639 | 34081 ft | 453 kts | 42° |
| 2026-05-04 18:10 | 45.25748 | 12.02755 | 34080 ft | 458 kts | 46° |
| 2026-05-04 18:10 | 45.29094 | 12.10406 | 34081 ft | 465 kts | 52° |
| 2026-05-04 18:11 | 45.31965 | 12.18694 | 34079 ft | 470 kts | 56° |
| 2026-05-04 18:11 | 45.34720 | 12.27103 | 34072 ft | 470 kts | 56° |
| 2026-05-04 18:12 | 45.37480 | 12.35535 | 34066 ft | 470 kts | 56° |
| 2026-05-04 18:12 | 45.40236 | 12.43957 | 34064 ft | 470 kts | 56° |
| 2026-05-04 18:13 | 45.42993 | 12.52402 | 34063 ft | 469 kts | 56° |
| 2026-05-04 18:14 | 45.47088 | 12.64988 | 34063 ft | 470 kts | 56° |
| 2026-05-04 18:14 | 45.49845 | 12.73495 | 34063 ft | 470 kts | 57° |
| 2026-05-04 18:15 | 45.55301 | 12.90411 | 34062 ft | 472 kts | 57° |
| 2026-05-04 18:16 | 45.58022 | 12.98897 | 34064 ft | 471 kts | 56° |
| 2026-05-04 18:16 | 45.60729 | 13.07388 | 33783 ft | 468 kts | 56° |
| 2026-05-04 18:17 | 45.63967 | 13.15107 | 32683 ft | 439 kts | 37° |
| 2026-05-04 18:17 | 45.66176 | 13.17923 | 32137 ft | 423 kts | 26° |
| 2026-05-04 18:17 | 45.71313 | 13.21453 | 31037 ft | 409 kts | 12° |
| 2026-05-04 18:18 | 45.74012 | 13.22822 | 30480 ft | 412 kts | 12° |
| 2026-05-04 18:18 | 45.76704 | 13.24174 | 29929 ft | 415 kts | 12° |
| 2026-05-04 18:18 | 45.79456 | 13.25559 | 29371 ft | 419 kts | 12° |
| 2026-05-04 18:18 | 45.82189 | 13.26942 | 28821 ft | 422 kts | 12° |
| 2026-05-04 18:19 | 45.87704 | 13.29749 | 27685 ft | 421 kts | 13° |
| 2026-05-04 18:19 | 45.90434 | 13.31144 | 27110 ft | 420 kts | 13° |
| 2026-05-04 18:19 | 45.93168 | 13.32542 | 26532 ft | 418 kts | 13° |
| 2026-05-04 18:20 | 45.95897 | 13.33939 | 25953 ft | 416 kts | 13° |
| 2026-05-04 18:20 | 45.98631 | 13.35339 | 25370 ft | 415 kts | 13° |
| 2026-05-04 18:20 | 46.01339 | 13.36728 | 24790 ft | 413 kts | 13° |
| 2026-05-04 18:20 | 46.04008 | 13.38097 | 24217 ft | 411 kts | 13° |
| 2026-05-04 18:21 | 46.06705 | 13.39482 | 23635 ft | 409 kts | 14° |
| 2026-05-04 18:21 | 46.09356 | 13.40846 | 23057 ft | 404 kts | 14° |
| 2026-05-04 18:21 | 46.11969 | 13.42191 | 22485 ft | 401 kts | 14° |
| 2026-05-04 18:21 | 46.14585 | 13.43539 | 21905 ft | 397 kts | 14° |
| 2026-05-04 18:22 | 46.17154 | 13.44864 | 21331 ft | 394 kts | 14° |
| 2026-05-04 18:22 | 46.19734 | 13.46162 | 20751 ft | 391 kts | 13° |
| 2026-05-04 18:22 | 46.22293 | 13.47274 | 20179 ft | 387 kts | 11° |
| 2026-05-04 18:22 | 46.24898 | 13.48200 | 19598 ft | 384 kts | 8° |
| 2026-05-04 18:23 | 46.27493 | 13.49000 | 19022 ft | 382 kts | 7° |
| 2026-05-04 18:23 | 46.30090 | 13.49774 | 18443 ft | 380 kts | 8° |
| 2026-05-04 18:23 | 46.32668 | 13.50540 | 17865 ft | 379 kts | 8° |
| 2026-05-04 18:23 | 46.35226 | 13.51304 | 17290 ft | 377 kts | 8° |
| 2026-05-04 18:24 | 46.37791 | 13.52074 | 16712 ft | 376 kts | 8° |
| 2026-05-04 18:24 | 46.40323 | 13.52836 | 16138 ft | 375 kts | 9° |
| 2026-05-04 18:24 | 46.42858 | 13.53596 | 15563 ft | 374 kts | 9° |
| 2026-05-04 18:24 | 46.45392 | 13.54347 | 15160 ft | 367 kts | 9° |
| 2026-05-04 18:25 | 46.47843 | 13.55119 | 15071 ft | 353 kts | 14° |
| 2026-05-04 18:25 | 46.49944 | 13.56728 | 15050 ft | 342 kts | 38° |
| 2026-05-04 18:25 | 46.51449 | 13.59378 | 15061 ft | 344 kts | 58° |
| 2026-05-04 18:25 | 46.52378 | 13.62586 | 15066 ft | 346 kts | 68° |
| 2026-05-04 18:26 | 46.53150 | 13.65922 | 15058 ft | 346 kts | 70° |
| 2026-05-04 18:26 | 46.53907 | 13.69239 | 15052 ft | 346 kts | 70° |
| 2026-05-04 18:26 | 46.54678 | 13.72540 | 15046 ft | 346 kts | 69° |
| 2026-05-04 18:26 | 46.55472 | 13.75878 | 15041 ft | 346 kts | 69° |
| 2026-05-04 18:27 | 46.56263 | 13.79164 | 15037 ft | 346 kts | 69° |
| 2026-05-04 18:27 | 46.57066 | 13.82477 | 15034 ft | 346 kts | 69° |
| 2026-05-04 18:27 | 46.57870 | 13.85784 | 15031 ft | 346 kts | 69° |
| 2026-05-04 18:27 | 46.58670 | 13.89074 | 15017 ft | 347 kts | 69° |
| 2026-05-04 18:28 | 46.59470 | 13.92358 | 14649 ft | 347 kts | 69° |
| 2026-05-04 18:28 | 46.60276 | 13.95670 | 14197 ft | 346 kts | 69° |
| 2026-05-04 18:28 | 46.61077 | 13.98960 | 13747 ft | 345 kts | 69° |
| 2026-05-04 18:28 | 46.61871 | 14.02234 | 13297 ft | 343 kts | 70° |
| 2026-05-04 18:29 | 46.62665 | 14.05511 | 12846 ft | 342 kts | 70° |
| 2026-05-04 18:29 | 46.63445 | 14.08736 | 12400 ft | 341 kts | 70° |
| 2026-05-04 18:29 | 46.64227 | 14.11977 | 11949 ft | 339 kts | 70° |
| 2026-05-04 18:29 | 46.65008 | 14.15223 | 11496 ft | 338 kts | 70° |
| 2026-05-04 18:30 | 46.66540 | 14.21601 | 10691 ft | 332 kts | 70° |
| 2026-05-04 18:30 | 46.67294 | 14.24741 | 10293 ft | 329 kts | 70° |
| 2026-05-04 18:30 | 46.68045 | 14.27871 | 9893 ft | 327 kts | 70° |
| 2026-05-04 18:31 | 46.68796 | 14.31012 | 9556 ft | 322 kts | 70° |
| 2026-05-04 18:31 | 46.69521 | 14.34045 | 9258 ft | 317 kts | 70° |
| 2026-05-04 18:31 | 46.70238 | 14.37051 | 8958 ft | 313 kts | 70° |
| 2026-05-04 18:31 | 46.70915 | 14.40044 | 8651 ft | 308 kts | 76° |
| 2026-05-04 18:32 | 46.71030 | 14.43119 | 8339 ft | 304 kts | 98° |
| 2026-05-04 18:32 | 46.70538 | 14.46098 | 8047 ft | 297 kts | 106° |
| 2026-05-04 18:32 | 46.69952 | 14.48917 | 7748 ft | 289 kts | 107° |
| 2026-05-04 18:32 | 46.69367 | 14.51685 | 7433 ft | 283 kts | 107° |
| 2026-05-04 18:33 | 46.68809 | 14.54385 | 7107 ft | 272 kts | 106° |
| 2026-05-04 18:33 | 46.68280 | 14.56989 | 6778 ft | 262 kts | 106° |
| 2026-05-04 18:33 | 46.67778 | 14.59491 | 6467 ft | 254 kts | 106° |
| 2026-05-04 18:33 | 46.67229 | 14.61869 | 6155 ft | 245 kts | 119° |
| 2026-05-04 18:34 | 46.66043 | 14.63561 | 5809 ft | 236 kts | 159° |
| 2026-05-04 18:34 | 46.64482 | 14.63762 | 5504 ft | 226 kts | 194° |
| 2026-05-04 18:34 | 46.63025 | 14.63068 | 5229 ft | 221 kts | 202° |
| 2026-05-04 18:34 | 46.61584 | 14.62268 | 4935 ft | 220 kts | 201° |
| 2026-05-04 18:35 | 46.60231 | 14.61272 | 4672 ft | 218 kts | 224° |
| 2026-05-04 18:35 | 46.59459 | 14.59447 | 4415 ft | 215 kts | 258° |
| 2026-05-04 18:35 | 46.59460 | 14.57335 | 4241 ft | 205 kts | 279° |
| 2026-05-04 18:35 | 46.59830 | 14.55374 | 4038 ft | 196 kts | 287° |
| 2026-05-04 18:36 | 46.60257 | 14.53574 | 3955 ft | 179 kts | 288° |
| 2026-05-04 18:36 | 46.60635 | 14.51871 | 3727 ft | 175 kts | 287° |
| 2026-05-04 18:36 | 46.60975 | 14.50208 | 3498 ft | 170 kts | 286° |
| 2026-05-04 18:36 | 46.61296 | 14.48583 | 3275 ft | 166 kts | 285° |
| 2026-05-04 18:37 | 46.61606 | 14.47013 | 3076 ft | 155 kts | 284° |
| 2026-05-04 18:37 | 46.61896 | 14.45541 | 2885 ft | 150 kts | 284° |
| 2026-05-04 18:37 | 46.62183 | 14.44089 | 2680 ft | 149 kts | 285° |
| 2026-05-04 18:37 | 46.62472 | 14.42648 | 2469 ft | 146 kts | 285° |
| 2026-05-04 18:38 | 46.62759 | 14.41225 | 2247 ft | 147 kts | 285° |
| 2026-05-04 18:38 | 46.63029 | 14.39808 | 2066 ft | 145 kts | 286° |
| 2026-05-04 18:38 | 46.63319 | 14.38402 | 1890 ft | 144 kts | 284° |
| 2026-05-04 18:38 | 46.63600 | 14.36996 | 1702 ft | 144 kts | 285° |
| 2026-05-04 18:39 | 46.63886 | 14.35601 | 1499 ft | 145 kts | 283° |
| 2026-05-04 18:39 | 46.64153 | 14.34270 | 1461 ft | 125 kts | 285° |
| 2026-05-04 18:39 | 46.64354 | 14.33262 | 1466 ft | 78 kts | 285° |
| 2026-05-04 18:39 | 46.64447 | 14.32816 | 1468 ft | 29 kts | 286° |
| 2026-05-04 18:40 | 46.64496 | 14.32558 | 1469 ft | 19 kts | 287° |
| 2026-05-04 18:40 | 46.64543 | 14.32425 | 1469 ft | 12 kts | 348° |
| 2026-05-04 18:40 | 46.64610 | 14.32446 | 1471 ft | 9 kts | 17° |
| 2026-05-04 18:40 | 46.64666 | 14.32470 | 1472 ft | 7 kts | 16° |
| 2026-05-04 18:41 | 46.64720 | 14.32482 | 1474 ft | 9 kts | 2° |
| 2026-05-04 18:41 | 46.64781 | 14.32476 | 1476 ft | 2 kts | 358° |
| 2026-05-04 18:41 | 46.64785 | 14.32480 | 1476 ft | 0 kts | 64° |
| 2026-05-04 18:41 | 46.64788 | 14.32513 | 1477 ft | 5 kts | 79° |
| 2026-05-04 18:42 | 46.64795 | 14.32556 | 1477 ft | 2 kts | 76° |
| 2026-05-04 18:42 | 46.64796 | 14.32556 | 1477 ft | 0 kts | 75° |